sensor_id;sensor_type;location;lat;lon;timestamp;P1;durP1;ratioP1;P2;durP2;ratioP2
51800;SDS011;37855;53.204;6.568;2024-03-08T00:00:54;36.30;;;18.45;;
51800;SDS011;37855;53.204;6.568;2024-03-08T00:03:20;36.80;;;19.90;;
51800;SDS011;37855;53.204;6.568;2024-03-08T00:05:46;39.35;;;19.77;;
51800;SDS011;37855;53.204;6.568;2024-03-08T00:08:12;39.80;;;20.55;;
51800;SDS011;37855;53.204;6.568;2024-03-08T00:10:39;43.30;;;20.23;;
51800;SDS011;37855;53.204;6.568;2024-03-08T00:13:04;40.35;;;19.90;;
51800;SDS011;37855;53.204;6.568;2024-03-08T00:15:31;41.88;;;22.48;;
51800;SDS011;37855;53.204;6.568;2024-03-08T00:17:57;39.00;;;21.40;;
51800;SDS011;37855;53.204;6.568;2024-03-08T00:20:23;41.28;;;20.85;;
51800;SDS011;37855;53.204;6.568;2024-03-08T00:22:48;38.27;;;19.03;;
51800;SDS011;37855;53.204;6.568;2024-03-08T00:25:14;36.28;;;19.23;;
51800;SDS011;37855;53.204;6.568;2024-03-08T00:27:40;39.53;;;19.93;;
51800;SDS011;37855;53.204;6.568;2024-03-08T00:30:08;41.67;;;20.83;;
51800;SDS011;37855;53.204;6.568;2024-03-08T00:32:34;46.08;;;21.20;;
51800;SDS011;37855;53.204;6.568;2024-03-08T00:35:01;43.50;;;20.10;;
51800;SDS011;37855;53.204;6.568;2024-03-08T00:37:26;42.80;;;20.07;;
51800;SDS011;37855;53.204;6.568;2024-03-08T00:39:52;40.97;;;21.03;;
51800;SDS011;37855;53.204;6.568;2024-03-08T00:42:18;38.25;;;19.30;;
51800;SDS011;37855;53.204;6.568;2024-03-08T00:44:44;41.25;;;21.23;;
51800;SDS011;37855;53.204;6.568;2024-03-08T00:47:11;39.58;;;21.15;;
51800;SDS011;37855;53.204;6.568;2024-03-08T00:49:36;40.97;;;20.83;;
51800;SDS011;37855;53.204;6.568;2024-03-08T00:52:03;37.38;;;19.80;;
51800;SDS011;37855;53.204;6.568;2024-03-08T00:54:33;39.85;;;20.27;;
51800;SDS011;37855;53.204;6.568;2024-03-08T00:57:00;38.78;;;19.65;;
51800;SDS011;37855;53.204;6.568;2024-03-08T00:59:27;38.73;;;18.97;;
51800;SDS011;37855;53.204;6.568;2024-03-08T01:01:53;41.45;;;20.40;;
51800;SDS011;37855;53.204;6.568;2024-03-08T01:04:19;40.58;;;19.50;;
51800;SDS011;37855;53.204;6.568;2024-03-08T01:06:46;44.65;;;20.27;;
51800;SDS011;37855;53.204;6.568;2024-03-08T01:09:12;42.53;;;22.50;;
51800;SDS011;37855;53.204;6.568;2024-03-08T01:11:38;42.65;;;19.65;;
51800;SDS011;37855;53.204;6.568;2024-03-08T01:14:04;41.95;;;20.52;;
51800;SDS011;37855;53.204;6.568;2024-03-08T01:16:30;41.00;;;20.73;;
51800;SDS011;37855;53.204;6.568;2024-03-08T01:18:58;41.70;;;19.85;;
51800;SDS011;37855;53.204;6.568;2024-03-08T01:21:24;35.30;;;18.20;;
51800;SDS011;37855;53.204;6.568;2024-03-08T01:23:55;41.97;;;21.60;;
51800;SDS011;37855;53.204;6.568;2024-03-08T01:26:20;41.25;;;20.63;;
51800;SDS011;37855;53.204;6.568;2024-03-08T01:28:46;43.33;;;19.75;;
51800;SDS011;37855;53.204;6.568;2024-03-08T01:31:11;39.60;;;19.87;;
51800;SDS011;37855;53.204;6.568;2024-03-08T01:33:38;39.10;;;19.70;;
51800;SDS011;37855;53.204;6.568;2024-03-08T01:36:05;40.92;;;20.48;;
51800;SDS011;37855;53.204;6.568;2024-03-08T01:38:31;39.70;;;20.83;;
51800;SDS011;37855;53.204;6.568;2024-03-08T01:40:57;40.35;;;20.25;;
51800;SDS011;37855;53.204;6.568;2024-03-08T01:43:25;40.53;;;19.87;;
51800;SDS011;37855;53.204;6.568;2024-03-08T01:45:58;40.75;;;19.98;;
51800;SDS011;37855;53.204;6.568;2024-03-08T01:48:29;37.05;;;18.88;;
51800;SDS011;37855;53.204;6.568;2024-03-08T01:50:56;41.75;;;20.08;;
51800;SDS011;37855;53.204;6.568;2024-03-08T01:53:24;39.77;;;20.93;;
51800;SDS011;37855;53.204;6.568;2024-03-08T01:55:54;38.03;;;19.80;;
51800;SDS011;37855;53.204;6.568;2024-03-08T01:58:24;41.28;;;19.35;;
51800;SDS011;37855;53.204;6.568;2024-03-08T02:00:56;39.50;;;20.08;;
51800;SDS011;37855;53.204;6.568;2024-03-08T02:03:23;43.05;;;19.55;;
51800;SDS011;37855;53.204;6.568;2024-03-08T02:05:49;39.00;;;19.07;;
51800;SDS011;37855;53.204;6.568;2024-03-08T02:08:14;38.97;;;19.92;;
51800;SDS011;37855;53.204;6.568;2024-03-08T02:10:41;37.80;;;19.23;;
51800;SDS011;37855;53.204;6.568;2024-03-08T02:13:08;38.47;;;18.45;;
51800;SDS011;37855;53.204;6.568;2024-03-08T02:15:50;38.63;;;18.90;;
51800;SDS011;37855;53.204;6.568;2024-03-08T02:18:20;36.58;;;18.85;;
51800;SDS011;37855;53.204;6.568;2024-03-08T02:20:47;37.38;;;18.25;;
51800;SDS011;37855;53.204;6.568;2024-03-08T02:23:14;36.28;;;18.73;;
51800;SDS011;37855;53.204;6.568;2024-03-08T02:25:40;37.30;;;19.03;;
51800;SDS011;37855;53.204;6.568;2024-03-08T02:28:07;39.85;;;20.60;;
51800;SDS011;37855;53.204;6.568;2024-03-08T02:30:35;40.22;;;19.60;;
51800;SDS011;37855;53.204;6.568;2024-03-08T02:33:01;39.42;;;18.58;;
51800;SDS011;37855;53.204;6.568;2024-03-08T02:35:27;39.97;;;18.97;;
51800;SDS011;37855;53.204;6.568;2024-03-08T02:37:52;35.17;;;17.63;;
51800;SDS011;37855;53.204;6.568;2024-03-08T02:40:18;39.77;;;19.70;;
51800;SDS011;37855;53.204;6.568;2024-03-08T02:42:44;37.92;;;18.75;;
51800;SDS011;37855;53.204;6.568;2024-03-08T02:45:09;39.27;;;19.30;;
51800;SDS011;37855;53.204;6.568;2024-03-08T02:47:35;37.88;;;20.90;;
51800;SDS011;37855;53.204;6.568;2024-03-08T02:50:01;35.43;;;18.33;;
51800;SDS011;37855;53.204;6.568;2024-03-08T02:52:26;38.30;;;19.52;;
51800;SDS011;37855;53.204;6.568;2024-03-08T02:54:52;37.43;;;18.47;;
51800;SDS011;37855;53.204;6.568;2024-03-08T02:57:18;35.63;;;19.02;;
51800;SDS011;37855;53.204;6.568;2024-03-08T02:59:44;36.43;;;18.47;;
51800;SDS011;37855;53.204;6.568;2024-03-08T03:02:10;34.80;;;17.90;;
51800;SDS011;37855;53.204;6.568;2024-03-08T03:04:39;36.30;;;18.67;;
51800;SDS011;37855;53.204;6.568;2024-03-08T03:07:05;36.50;;;17.88;;
51800;SDS011;37855;53.204;6.568;2024-03-08T03:09:30;36.73;;;18.97;;
51800;SDS011;37855;53.204;6.568;2024-03-08T03:11:58;34.45;;;18.42;;
51800;SDS011;37855;53.204;6.568;2024-03-08T03:14:24;34.35;;;17.70;;
51800;SDS011;37855;53.204;6.568;2024-03-08T03:16:51;36.17;;;19.48;;
51800;SDS011;37855;53.204;6.568;2024-03-08T03:19:17;33.70;;;17.43;;
51800;SDS011;37855;53.204;6.568;2024-03-08T03:21:43;37.47;;;17.38;;
51800;SDS011;37855;53.204;6.568;2024-03-08T03:24:09;34.10;;;18.30;;
51800;SDS011;37855;53.204;6.568;2024-03-08T03:26:38;33.13;;;17.40;;
51800;SDS011;37855;53.204;6.568;2024-03-08T03:29:05;34.25;;;17.45;;
51800;SDS011;37855;53.204;6.568;2024-03-08T03:31:31;33.85;;;18.33;;
51800;SDS011;37855;53.204;6.568;2024-03-08T03:33:57;34.07;;;17.70;;
51800;SDS011;37855;53.204;6.568;2024-03-08T03:36:27;39.90;;;18.80;;
51800;SDS011;37855;53.204;6.568;2024-03-08T03:38:53;33.72;;;16.67;;
51800;SDS011;37855;53.204;6.568;2024-03-08T03:41:30;34.17;;;19.05;;
51800;SDS011;37855;53.204;6.568;2024-03-08T03:43:56;33.67;;;17.50;;
51800;SDS011;37855;53.204;6.568;2024-03-08T03:46:21;34.15;;;17.25;;
51800;SDS011;37855;53.204;6.568;2024-03-08T03:48:47;35.10;;;17.60;;
51800;SDS011;37855;53.204;6.568;2024-03-08T03:51:12;33.43;;;17.07;;
51800;SDS011;37855;53.204;6.568;2024-03-08T03:53:40;33.35;;;17.75;;
51800;SDS011;37855;53.204;6.568;2024-03-08T03:56:07;34.28;;;18.00;;
51800;SDS011;37855;53.204;6.568;2024-03-08T03:58:35;36.53;;;18.48;;
51800;SDS011;37855;53.204;6.568;2024-03-08T04:01:01;31.47;;;16.73;;
51800;SDS011;37855;53.204;6.568;2024-03-08T04:03:29;31.92;;;17.20;;
51800;SDS011;37855;53.204;6.568;2024-03-08T04:05:57;33.55;;;18.23;;
51800;SDS011;37855;53.204;6.568;2024-03-08T04:08:23;34.13;;;16.93;;
51800;SDS011;37855;53.204;6.568;2024-03-08T04:10:49;35.20;;;17.88;;
51800;SDS011;37855;53.204;6.568;2024-03-08T04:13:16;31.00;;;15.53;;
51800;SDS011;37855;53.204;6.568;2024-03-08T04:15:44;32.20;;;17.35;;
51800;SDS011;37855;53.204;6.568;2024-03-08T04:18:10;35.20;;;16.80;;
51800;SDS011;37855;53.204;6.568;2024-03-08T04:20:35;38.07;;;18.50;;
51800;SDS011;37855;53.204;6.568;2024-03-08T04:23:02;34.10;;;18.30;;
51800;SDS011;37855;53.204;6.568;2024-03-08T04:25:27;30.70;;;16.90;;
51800;SDS011;37855;53.204;6.568;2024-03-08T04:27:53;35.17;;;18.52;;
51800;SDS011;37855;53.204;6.568;2024-03-08T04:30:19;30.83;;;16.50;;
51800;SDS011;37855;53.204;6.568;2024-03-08T04:32:46;33.80;;;17.00;;
51800;SDS011;37855;53.204;6.568;2024-03-08T04:35:15;33.33;;;16.65;;
51800;SDS011;37855;53.204;6.568;2024-03-08T04:37:44;31.60;;;15.53;;
51800;SDS011;37855;53.204;6.568;2024-03-08T04:40:10;31.60;;;17.23;;
51800;SDS011;37855;53.204;6.568;2024-03-08T04:42:36;36.58;;;17.75;;
51800;SDS011;37855;53.204;6.568;2024-03-08T04:45:05;32.63;;;17.40;;
51800;SDS011;37855;53.204;6.568;2024-03-08T04:47:36;33.13;;;17.23;;
51800;SDS011;37855;53.204;6.568;2024-03-08T04:50:02;36.15;;;17.25;;
51800;SDS011;37855;53.204;6.568;2024-03-08T04:52:27;33.80;;;17.55;;
51800;SDS011;37855;53.204;6.568;2024-03-08T04:54:58;34.42;;;18.85;;
51800;SDS011;37855;53.204;6.568;2024-03-08T04:57:25;29.17;;;15.17;;
51800;SDS011;37855;53.204;6.568;2024-03-08T04:59:55;36.80;;;18.02;;
51800;SDS011;37855;53.204;6.568;2024-03-08T05:02:23;37.05;;;18.67;;
51800;SDS011;37855;53.204;6.568;2024-03-08T05:04:48;32.60;;;16.80;;
51800;SDS011;37855;53.204;6.568;2024-03-08T05:07:14;27.70;;;14.32;;
51800;SDS011;37855;53.204;6.568;2024-03-08T05:09:44;34.67;;;17.38;;
51800;SDS011;37855;53.204;6.568;2024-03-08T05:12:16;31.30;;;14.93;;
51800;SDS011;37855;53.204;6.568;2024-03-08T05:14:45;34.70;;;16.75;;
51800;SDS011;37855;53.204;6.568;2024-03-08T05:17:29;27.63;;;14.00;;
51800;SDS011;37855;53.204;6.568;2024-03-08T05:19:55;35.40;;;16.77;;
51800;SDS011;37855;53.204;6.568;2024-03-08T05:22:20;31.70;;;16.30;;
51800;SDS011;37855;53.204;6.568;2024-03-08T05:24:50;36.03;;;19.20;;
51800;SDS011;37855;53.204;6.568;2024-03-08T05:27:18;30.73;;;16.40;;
51800;SDS011;37855;53.204;6.568;2024-03-08T05:29:43;32.00;;;15.98;;
51800;SDS011;37855;53.204;6.568;2024-03-08T05:32:09;33.50;;;16.50;;
51800;SDS011;37855;53.204;6.568;2024-03-08T05:34:35;32.63;;;15.98;;
51800;SDS011;37855;53.204;6.568;2024-03-08T05:37:00;33.40;;;15.23;;
51800;SDS011;37855;53.204;6.568;2024-03-08T05:39:29;32.08;;;16.08;;
51800;SDS011;37855;53.204;6.568;2024-03-08T05:41:55;36.67;;;16.98;;
51800;SDS011;37855;53.204;6.568;2024-03-08T05:44:24;27.73;;;14.27;;
51800;SDS011;37855;53.204;6.568;2024-03-08T05:46:53;31.48;;;14.93;;
51800;SDS011;37855;53.204;6.568;2024-03-08T05:49:19;29.58;;;15.02;;
51800;SDS011;37855;53.204;6.568;2024-03-08T05:51:46;31.60;;;15.68;;
51800;SDS011;37855;53.204;6.568;2024-03-08T05:54:12;30.93;;;15.73;;
51800;SDS011;37855;53.204;6.568;2024-03-08T05:56:38;30.58;;;15.48;;
51800;SDS011;37855;53.204;6.568;2024-03-08T05:59:09;30.58;;;15.27;;
51800;SDS011;37855;53.204;6.568;2024-03-08T06:01:35;41.05;;;16.40;;
51800;SDS011;37855;53.204;6.568;2024-03-08T06:04:01;27.90;;;15.20;;
51800;SDS011;37855;53.204;6.568;2024-03-08T06:06:28;29.42;;;14.77;;
51800;SDS011;37855;53.204;6.568;2024-03-08T06:08:54;29.85;;;15.75;;
51800;SDS011;37855;53.204;6.568;2024-03-08T06:11:24;35.15;;;16.65;;
51800;SDS011;37855;53.204;6.568;2024-03-08T06:13:52;32.60;;;15.53;;
51800;SDS011;37855;53.204;6.568;2024-03-08T06:16:21;32.33;;;14.73;;
51800;SDS011;37855;53.204;6.568;2024-03-08T06:18:48;30.60;;;16.38;;
51800;SDS011;37855;53.204;6.568;2024-03-08T06:21:13;34.30;;;16.97;;
51800;SDS011;37855;53.204;6.568;2024-03-08T06:23:42;32.70;;;15.48;;
51800;SDS011;37855;53.204;6.568;2024-03-08T06:26:08;32.37;;;15.77;;
51800;SDS011;37855;53.204;6.568;2024-03-08T06:28:34;29.57;;;15.43;;
51800;SDS011;37855;53.204;6.568;2024-03-08T06:31:03;29.48;;;14.75;;
51800;SDS011;37855;53.204;6.568;2024-03-08T06:33:29;33.67;;;16.95;;
51800;SDS011;37855;53.204;6.568;2024-03-08T06:35:58;29.43;;;15.47;;
51800;SDS011;37855;53.204;6.568;2024-03-08T06:38:24;26.83;;;14.05;;
51800;SDS011;37855;53.204;6.568;2024-03-08T06:40:52;32.30;;;16.63;;
51800;SDS011;37855;53.204;6.568;2024-03-08T06:43:18;32.03;;;15.55;;
51800;SDS011;37855;53.204;6.568;2024-03-08T06:45:47;29.48;;;14.75;;
51800;SDS011;37855;53.204;6.568;2024-03-08T06:48:17;30.75;;;16.17;;
51800;SDS011;37855;53.204;6.568;2024-03-08T06:50:46;30.67;;;16.30;;
51800;SDS011;37855;53.204;6.568;2024-03-08T06:53:13;28.02;;;14.65;;
51800;SDS011;37855;53.204;6.568;2024-03-08T06:55:39;36.63;;;19.10;;
51800;SDS011;37855;53.204;6.568;2024-03-08T06:58:05;31.27;;;17.83;;
51800;SDS011;37855;53.204;6.568;2024-03-08T07:00:35;30.75;;;16.13;;
51800;SDS011;37855;53.204;6.568;2024-03-08T07:03:02;34.17;;;16.80;;
51800;SDS011;37855;53.204;6.568;2024-03-08T07:05:28;32.92;;;16.60;;
51800;SDS011;37855;53.204;6.568;2024-03-08T07:07:58;29.80;;;16.67;;
51800;SDS011;37855;53.204;6.568;2024-03-08T07:10:24;30.10;;;16.27;;
51800;SDS011;37855;53.204;6.568;2024-03-08T07:12:50;30.95;;;15.40;;
51800;SDS011;37855;53.204;6.568;2024-03-08T07:15:16;33.38;;;16.65;;
51800;SDS011;37855;53.204;6.568;2024-03-08T07:17:47;31.38;;;16.15;;
51800;SDS011;37855;53.204;6.568;2024-03-08T07:20:14;31.03;;;15.37;;
51800;SDS011;37855;53.204;6.568;2024-03-08T07:22:43;35.70;;;15.90;;
51800;SDS011;37855;53.204;6.568;2024-03-08T07:25:12;30.73;;;16.77;;
51800;SDS011;37855;53.204;6.568;2024-03-08T07:27:48;34.78;;;16.48;;
51800;SDS011;37855;53.204;6.568;2024-03-08T07:30:18;26.75;;;14.43;;
51800;SDS011;37855;53.204;6.568;2024-03-08T07:33:05;30.45;;;15.32;;
51800;SDS011;37855;53.204;6.568;2024-03-08T07:35:35;36.13;;;15.70;;
51800;SDS011;37855;53.204;6.568;2024-03-08T07:38:02;31.95;;;15.23;;
51800;SDS011;37855;53.204;6.568;2024-03-08T07:40:30;30.80;;;15.38;;
51800;SDS011;37855;53.204;6.568;2024-03-08T07:42:59;30.17;;;15.10;;
51800;SDS011;37855;53.204;6.568;2024-03-08T07:45:25;32.80;;;15.90;;
51800;SDS011;37855;53.204;6.568;2024-03-08T07:47:51;30.83;;;16.35;;
51800;SDS011;37855;53.204;6.568;2024-03-08T07:50:16;33.43;;;16.83;;
51800;SDS011;37855;53.204;6.568;2024-03-08T07:52:42;30.83;;;15.63;;
51800;SDS011;37855;53.204;6.568;2024-03-08T07:55:08;30.23;;;17.20;;
51800;SDS011;37855;53.204;6.568;2024-03-08T07:57:35;31.05;;;16.17;;
51800;SDS011;37855;53.204;6.568;2024-03-08T08:00:03;30.13;;;15.30;;
51800;SDS011;37855;53.204;6.568;2024-03-08T08:02:32;32.42;;;17.55;;
51800;SDS011;37855;53.204;6.568;2024-03-08T08:04:59;31.80;;;17.17;;
51800;SDS011;37855;53.204;6.568;2024-03-08T08:07:25;31.00;;;16.50;;
51800;SDS011;37855;53.204;6.568;2024-03-08T08:09:52;30.87;;;15.63;;
51800;SDS011;37855;53.204;6.568;2024-03-08T08:12:17;31.88;;;17.35;;
51800;SDS011;37855;53.204;6.568;2024-03-08T08:14:43;32.23;;;16.83;;
51800;SDS011;37855;53.204;6.568;2024-03-08T08:17:09;30.45;;;16.08;;
51800;SDS011;37855;53.204;6.568;2024-03-08T08:19:35;30.30;;;16.30;;
51800;SDS011;37855;53.204;6.568;2024-03-08T08:22:01;29.83;;;16.88;;
51800;SDS011;37855;53.204;6.568;2024-03-08T08:24:29;32.08;;;17.70;;
51800;SDS011;37855;53.204;6.568;2024-03-08T08:26:55;29.00;;;14.97;;
51800;SDS011;37855;53.204;6.568;2024-03-08T08:29:21;31.95;;;18.17;;
51800;SDS011;37855;53.204;6.568;2024-03-08T08:31:47;32.87;;;16.63;;
51800;SDS011;37855;53.204;6.568;2024-03-08T08:34:14;33.30;;;18.95;;
51800;SDS011;37855;53.204;6.568;2024-03-08T08:36:42;31.15;;;16.60;;
51800;SDS011;37855;53.204;6.568;2024-03-08T08:39:07;30.50;;;16.87;;
51800;SDS011;37855;53.204;6.568;2024-03-08T08:41:38;32.00;;;17.40;;
51800;SDS011;37855;53.204;6.568;2024-03-08T08:44:06;30.73;;;16.98;;
51800;SDS011;37855;53.204;6.568;2024-03-08T08:46:38;30.45;;;16.95;;
51800;SDS011;37855;53.204;6.568;2024-03-08T08:49:04;29.50;;;16.52;;
51800;SDS011;37855;53.204;6.568;2024-03-08T08:51:31;33.27;;;16.70;;
51800;SDS011;37855;53.204;6.568;2024-03-08T08:53:58;35.00;;;18.55;;
51800;SDS011;37855;53.204;6.568;2024-03-08T08:56:25;32.83;;;17.98;;
51800;SDS011;37855;53.204;6.568;2024-03-08T08:58:51;33.03;;;17.27;;
51800;SDS011;37855;53.204;6.568;2024-03-08T09:01:21;26.63;;;15.45;;
51800;SDS011;37855;53.204;6.568;2024-03-08T09:03:46;34.25;;;17.98;;
51800;SDS011;37855;53.204;6.568;2024-03-08T09:06:12;27.60;;;13.90;;
51800;SDS011;37855;53.204;6.568;2024-03-08T09:08:38;34.92;;;16.98;;
51800;SDS011;37855;53.204;6.568;2024-03-08T09:11:04;39.38;;;19.10;;
51800;SDS011;37855;53.204;6.568;2024-03-08T09:13:30;32.47;;;17.10;;
51800;SDS011;37855;53.204;6.568;2024-03-08T09:15:56;29.10;;;16.00;;
51800;SDS011;37855;53.204;6.568;2024-03-08T09:18:22;31.85;;;16.90;;
51800;SDS011;37855;53.204;6.568;2024-03-08T09:20:49;35.10;;;16.98;;
51800;SDS011;37855;53.204;6.568;2024-03-08T09:23:16;33.47;;;16.33;;
51800;SDS011;37855;53.204;6.568;2024-03-08T09:25:44;29.70;;;16.13;;
51800;SDS011;37855;53.204;6.568;2024-03-08T09:28:11;28.77;;;17.05;;
51800;SDS011;37855;53.204;6.568;2024-03-08T09:30:40;32.85;;;16.27;;
51800;SDS011;37855;53.204;6.568;2024-03-08T09:33:12;28.63;;;16.73;;
51800;SDS011;37855;53.204;6.568;2024-03-08T09:35:42;30.53;;;16.30;;
51800;SDS011;37855;53.204;6.568;2024-03-08T09:38:08;35.17;;;16.98;;
51800;SDS011;37855;53.204;6.568;2024-03-08T09:40:47;34.47;;;17.75;;
51800;SDS011;37855;53.204;6.568;2024-03-08T09:43:13;34.50;;;16.83;;
51800;SDS011;37855;53.204;6.568;2024-03-08T09:45:38;31.90;;;17.08;;
51800;SDS011;37855;53.204;6.568;2024-03-08T09:48:10;29.77;;;17.58;;
51800;SDS011;37855;53.204;6.568;2024-03-08T09:50:40;35.70;;;17.73;;
51800;SDS011;37855;53.204;6.568;2024-03-08T09:53:06;34.33;;;19.30;;
51800;SDS011;37855;53.204;6.568;2024-03-08T09:55:38;31.33;;;15.60;;
51800;SDS011;37855;53.204;6.568;2024-03-08T09:58:10;34.60;;;16.85;;
51800;SDS011;37855;53.204;6.568;2024-03-08T10:00:55;32.50;;;17.42;;
51800;SDS011;37855;53.204;6.568;2024-03-08T10:03:26;30.83;;;16.90;;
51800;SDS011;37855;53.204;6.568;2024-03-08T10:05:52;31.65;;;17.00;;
51800;SDS011;37855;53.204;6.568;2024-03-08T10:08:21;39.15;;;16.85;;
51800;SDS011;37855;53.204;6.568;2024-03-08T10:10:47;30.90;;;17.40;;
51800;SDS011;37855;53.204;6.568;2024-03-08T10:13:14;32.75;;;18.10;;
51800;SDS011;37855;53.204;6.568;2024-03-08T10:15:41;31.73;;;18.27;;
51800;SDS011;37855;53.204;6.568;2024-03-08T10:18:07;30.40;;;17.23;;
51800;SDS011;37855;53.204;6.568;2024-03-08T10:20:33;34.50;;;17.93;;
51800;SDS011;37855;53.204;6.568;2024-03-08T10:23:00;33.55;;;17.67;;
51800;SDS011;37855;53.204;6.568;2024-03-08T10:25:28;30.90;;;18.02;;
51800;SDS011;37855;53.204;6.568;2024-03-08T10:27:55;35.27;;;19.43;;
51800;SDS011;37855;53.204;6.568;2024-03-08T10:30:21;36.75;;;17.35;;
51800;SDS011;37855;53.204;6.568;2024-03-08T10:32:51;32.42;;;18.60;;
51800;SDS011;37855;53.204;6.568;2024-03-08T10:35:18;26.27;;;16.15;;
51800;SDS011;37855;53.204;6.568;2024-03-08T10:37:50;28.90;;;17.67;;
51800;SDS011;37855;53.204;6.568;2024-03-08T10:40:27;31.58;;;18.02;;
51800;SDS011;37855;53.204;6.568;2024-03-08T10:42:57;34.13;;;17.70;;
51800;SDS011;37855;53.204;6.568;2024-03-08T10:45:37;31.90;;;17.58;;
51800;SDS011;37855;53.204;6.568;2024-03-08T10:51:03;35.95;;;17.25;;
51800;SDS011;37855;53.204;6.568;2024-03-08T10:53:29;29.63;;;17.25;;
51800;SDS011;37855;53.204;6.568;2024-03-08T10:55:56;33.40;;;17.77;;
51800;SDS011;37855;53.204;6.568;2024-03-08T10:58:22;36.40;;;16.98;;
51800;SDS011;37855;53.204;6.568;2024-03-08T11:00:53;31.45;;;17.40;;
51800;SDS011;37855;53.204;6.568;2024-03-08T11:06:17;31.20;;;16.70;;
51800;SDS011;37855;53.204;6.568;2024-03-08T11:09:02;34.87;;;19.27;;
51800;SDS011;37855;53.204;6.568;2024-03-08T11:11:49;31.90;;;15.90;;
51800;SDS011;37855;53.204;6.568;2024-03-08T11:14:42;31.13;;;17.63;;
51800;SDS011;37855;53.204;6.568;2024-03-08T11:17:09;30.30;;;17.80;;
51800;SDS011;37855;53.204;6.568;2024-03-08T11:19:34;45.27;;;21.60;;
51800;SDS011;37855;53.204;6.568;2024-03-08T11:22:01;34.35;;;18.38;;
51800;SDS011;37855;53.204;6.568;2024-03-08T11:24:28;32.05;;;18.25;;
51800;SDS011;37855;53.204;6.568;2024-03-08T11:27:03;33.57;;;17.70;;
51800;SDS011;37855;53.204;6.568;2024-03-08T11:32:16;31.25;;;18.02;;
51800;SDS011;37855;53.204;6.568;2024-03-08T11:34:48;33.03;;;17.55;;
51800;SDS011;37855;53.204;6.568;2024-03-08T11:37:20;30.87;;;17.83;;
51800;SDS011;37855;53.204;6.568;2024-03-08T11:39:47;33.22;;;18.58;;
51800;SDS011;37855;53.204;6.568;2024-03-08T11:42:18;30.60;;;17.25;;
51800;SDS011;37855;53.204;6.568;2024-03-08T11:44:47;36.35;;;17.35;;
51800;SDS011;37855;53.204;6.568;2024-03-08T11:47:15;34.38;;;18.05;;
51800;SDS011;37855;53.204;6.568;2024-03-08T11:49:41;30.30;;;18.07;;
51800;SDS011;37855;53.204;6.568;2024-03-08T11:52:12;31.65;;;18.10;;
51800;SDS011;37855;53.204;6.568;2024-03-08T11:54:40;30.20;;;18.15;;
51800;SDS011;37855;53.204;6.568;2024-03-08T11:57:06;34.97;;;18.33;;
51800;SDS011;37855;53.204;6.568;2024-03-08T11:59:32;30.42;;;17.17;;
51800;SDS011;37855;53.204;6.568;2024-03-08T12:01:59;31.60;;;17.53;;
51800;SDS011;37855;53.204;6.568;2024-03-08T12:04:26;31.35;;;17.73;;
51800;SDS011;37855;53.204;6.568;2024-03-08T12:06:52;30.27;;;17.80;;
51800;SDS011;37855;53.204;6.568;2024-03-08T12:09:18;32.83;;;17.40;;
51800;SDS011;37855;53.204;6.568;2024-03-08T12:11:47;32.42;;;18.42;;
51800;SDS011;37855;53.204;6.568;2024-03-08T12:14:14;33.63;;;18.27;;
51800;SDS011;37855;53.204;6.568;2024-03-08T12:16:40;30.92;;;17.27;;
51800;SDS011;37855;53.204;6.568;2024-03-08T12:19:07;31.03;;;16.53;;
51800;SDS011;37855;53.204;6.568;2024-03-08T12:21:35;30.45;;;17.38;;
51800;SDS011;37855;53.204;6.568;2024-03-08T12:24:04;29.67;;;17.33;;
51800;SDS011;37855;53.204;6.568;2024-03-08T12:26:37;30.45;;;16.98;;
51800;SDS011;37855;53.204;6.568;2024-03-08T12:29:20;31.50;;;17.75;;
51800;SDS011;37855;53.204;6.568;2024-03-08T12:31:58;33.07;;;18.50;;
51800;SDS011;37855;53.204;6.568;2024-03-08T12:34:26;30.13;;;17.20;;
51800;SDS011;37855;53.204;6.568;2024-03-08T12:36:53;30.00;;;18.70;;
51800;SDS011;37855;53.204;6.568;2024-03-08T12:39:21;27.88;;;16.65;;
51800;SDS011;37855;53.204;6.568;2024-03-08T12:41:48;30.52;;;18.70;;
51800;SDS011;37855;53.204;6.568;2024-03-08T12:44:16;31.47;;;17.10;;
51800;SDS011;37855;53.204;6.568;2024-03-08T12:46:44;30.35;;;17.23;;
51800;SDS011;37855;53.204;6.568;2024-03-08T12:49:10;33.08;;;18.80;;
51800;SDS011;37855;53.204;6.568;2024-03-08T12:51:37;29.20;;;16.65;;
51800;SDS011;37855;53.204;6.568;2024-03-08T12:54:04;29.20;;;17.30;;
51800;SDS011;37855;53.204;6.568;2024-03-08T12:56:32;29.20;;;16.87;;
51800;SDS011;37855;53.204;6.568;2024-03-08T12:58:59;29.77;;;16.80;;
51800;SDS011;37855;53.204;6.568;2024-03-08T13:01:26;33.92;;;17.83;;
51800;SDS011;37855;53.204;6.568;2024-03-08T13:03:52;33.42;;;18.35;;
51800;SDS011;37855;53.204;6.568;2024-03-08T13:06:19;29.10;;;17.23;;
51800;SDS011;37855;53.204;6.568;2024-03-08T13:08:49;34.17;;;16.23;;
51800;SDS011;37855;53.204;6.568;2024-03-08T13:11:16;28.08;;;16.38;;
51800;SDS011;37855;53.204;6.568;2024-03-08T13:13:43;32.13;;;17.40;;
51800;SDS011;37855;53.204;6.568;2024-03-08T13:16:09;31.70;;;17.80;;
51800;SDS011;37855;53.204;6.568;2024-03-08T13:18:36;28.83;;;16.48;;
51800;SDS011;37855;53.204;6.568;2024-03-08T13:21:05;27.30;;;14.57;;
51800;SDS011;37855;53.204;6.568;2024-03-08T13:23:31;28.60;;;16.20;;
51800;SDS011;37855;53.204;6.568;2024-03-08T13:25:58;30.63;;;16.80;;
51800;SDS011;37855;53.204;6.568;2024-03-08T13:28:24;26.00;;;15.23;;
51800;SDS011;37855;53.204;6.568;2024-03-08T13:30:54;28.42;;;15.65;;
51800;SDS011;37855;53.204;6.568;2024-03-08T13:33:23;26.47;;;15.40;;
51800;SDS011;37855;53.204;6.568;2024-03-08T13:35:49;28.10;;;16.50;;
51800;SDS011;37855;53.204;6.568;2024-03-08T13:38:16;25.58;;;15.20;;
51800;SDS011;37855;53.204;6.568;2024-03-08T13:40:43;27.50;;;15.13;;
51800;SDS011;37855;53.204;6.568;2024-03-08T13:43:08;28.27;;;16.47;;
51800;SDS011;37855;53.204;6.568;2024-03-08T13:45:37;29.92;;;16.50;;
51800;SDS011;37855;53.204;6.568;2024-03-08T13:48:03;29.67;;;16.58;;
51800;SDS011;37855;53.204;6.568;2024-03-08T13:50:37;24.27;;;15.27;;
51800;SDS011;37855;53.204;6.568;2024-03-08T13:53:03;26.23;;;14.85;;
51800;SDS011;37855;53.204;6.568;2024-03-08T13:55:29;26.35;;;15.20;;
51800;SDS011;37855;53.204;6.568;2024-03-08T13:57:55;30.30;;;15.40;;
51800;SDS011;37855;53.204;6.568;2024-03-08T14:00:25;29.48;;;14.40;;
51800;SDS011;37855;53.204;6.568;2024-03-08T14:02:54;23.83;;;14.60;;
51800;SDS011;37855;53.204;6.568;2024-03-08T14:05:20;27.38;;;14.82;;
51800;SDS011;37855;53.204;6.568;2024-03-08T14:07:45;24.87;;;14.60;;
51800;SDS011;37855;53.204;6.568;2024-03-08T14:10:14;23.95;;;15.20;;
51800;SDS011;37855;53.204;6.568;2024-03-08T14:12:40;27.10;;;15.02;;
51800;SDS011;37855;53.204;6.568;2024-03-08T14:15:09;24.13;;;14.77;;
51800;SDS011;37855;53.204;6.568;2024-03-08T14:17:36;25.97;;;14.23;;
51800;SDS011;37855;53.204;6.568;2024-03-08T14:20:02;24.10;;;14.85;;
51800;SDS011;37855;53.204;6.568;2024-03-08T14:22:29;23.40;;;14.10;;
51800;SDS011;37855;53.204;6.568;2024-03-08T14:24:56;24.88;;;13.63;;
51800;SDS011;37855;53.204;6.568;2024-03-08T14:27:22;26.30;;;14.43;;
51800;SDS011;37855;53.204;6.568;2024-03-08T14:29:48;24.92;;;14.40;;
51800;SDS011;37855;53.204;6.568;2024-03-08T14:32:13;23.77;;;13.37;;